Time;durP1;ratioP1;P1;durP2;ratioP2;P2;SDS_P1;SDS_P2;PMS_P1;PMS_P2;Temp;Humidity;BMP_temperature;BMP_pressure;BME280_temperature;BME280_humidity;BME280_pressure;Samples;Min_cycle;Max_cycle;Signal;HPM_P1;HPM_P2
2023/09/17 00:00:15;;;;;;;;;;;19.80;99.90;;;;;;4957138;29;20434;-66
2023/09/17 00:02:40;;;;;;;;;;;19.90;99.90;;;;;;4957428;28;19987;-65
2023/09/17 00:05:06;;;;;;;;;;;19.80;99.90;;;;;;4957487;28;19987;-64
2023/09/17 00:07:32;;;;;;;;;;;19.80;99.90;;;;;;4956986;29;19983;-69
2023/09/17 00:09:57;;;;;;;;;;;19.80;99.90;;;;;;4957305;28;19988;-66
2023/09/17 00:12:23;;;;;;;;;;;19.70;99.90;;;;;;4956750;29;20023;-62
2023/09/17 00:14:48;;;;;;;;;;;19.70;99.90;;;;;;4956929;28;20339;-63
2023/09/17 00:17:14;;;;;;;;;;;19.70;99.90;;;;;;4956946;28;20115;-61
2023/09/17 00:19:40;;;;;;;;;;;19.70;99.90;;;;;;4956956;29;20019;-64
2023/09/17 00:22:08;;;;;;;;;;;19.70;99.90;;;;;;4956936;28;19992;-64
2023/09/17 00:24:34;;;;;;;;;;;19.70;99.90;;;;;;4956776;28;20472;-64
2023/09/17 00:27:00;;;;;;;;;;;19.70;99.90;;;;;;4956587;28;20081;-65
2023/09/17 00:29:25;;;;;;;;;;;19.70;99.90;;;;;;4956801;29;19987;-63
2023/09/17 00:31:51;;;;;;;;;;;19.60;99.90;;;;;;4956461;28;20054;-65
2023/09/17 00:34:16;;;;;;;;;;;19.60;99.90;;;;;;4956668;29;20338;-65
2023/09/17 00:36:42;;;;;;;;;;;19.60;99.90;;;;;;4956723;29;20038;-65
2023/09/17 00:39:08;;;;;;;;;;;19.60;99.90;;;;;;4956600;29;19988;-67
2023/09/17 00:41:34;;;;;;;;;;;19.60;99.90;;;;;;4956656;28;19988;-64
2023/09/17 00:44:00;;;;;;;;;;;19.50;99.90;;;;;;4956508;28;20394;-66
2023/09/17 00:46:26;;;;;;;;;;;19.60;99.90;;;;;;4956336;28;19988;-62
2023/09/17 00:48:52;;;;;;;;;;;19.50;99.90;;;;;;4956691;29;20010;-70
2023/09/17 00:51:18;;;;;;;;;;;19.50;99.90;;;;;;4956105;28;20470;-63
2023/09/17 00:53:44;;;;;;;;;;;19.40;99.90;;;;;;4956023;28;20532;-62
2023/09/17 00:56:10;;;;;;;;;;;19.40;99.90;;;;;;4956023;28;19987;-67
2023/09/17 00:58:36;;;;;;;;;;;19.40;99.90;;;;;;4956234;28;19991;-66
2023/09/17 01:01:01;;;;;;;;;;;19.40;99.90;;;;;;4956117;28;20030;-63
2023/09/17 01:03:30;;;;;;;;;;;19.40;99.90;;;;;;4956016;29;20074;-65
2023/09/17 01:05:56;;;;;;;;;;;19.40;99.90;;;;;;4956233;28;19989;-66
2023/09/17 01:08:24;;;;;;;;;;;19.30;99.90;;;;;;4956182;28;19990;-63
2023/09/17 01:10:52;;;;;;;;;;;19.30;99.90;;;;;;4956119;28;20022;-63
2023/09/17 01:13:18;;;;;;;;;;;19.20;99.90;;;;;;4955743;28;20070;-67
2023/09/17 01:15:44;;;;;;;;;;;19.20;99.90;;;;;;4955924;28;19987;-63
2023/09/17 01:18:10;;;;;;;;;;;19.20;99.90;;;;;;4955939;28;19990;-64
2023/09/17 01:21:02;;;;;;;;;;;19.20;99.90;;;;;;4956147;28;20086;-64
2023/09/17 01:23:30;;;;;;;;;;;19.20;99.90;;;;;;4926389;28;20448;-66
2023/09/17 01:25:56;;;;;;;;;;;19.10;99.90;;;;;;4954470;29;19987;-66
2023/09/17 01:28:22;;;;;;;;;;;19.10;99.90;;;;;;4955801;28;20453;-69
2023/09/17 01:30:48;;;;;;;;;;;19.10;99.90;;;;;;4955695;28;20093;-66
2023/09/17 01:33:13;;;;;;;;;;;19.10;99.90;;;;;;4955688;28;20003;-65
2023/09/17 01:36:01;;;;;;;;;;;19.10;99.90;;;;;;4955973;29;19991;-63
2023/09/17 01:38:32;;;;;;;;;;;19.10;99.90;;;;;;4955818;28;20026;-65
2023/09/17 01:40:59;;;;;;;;;;;19.00;99.90;;;;;;4955619;28;19987;-70
2023/09/17 01:43:24;;;;;;;;;;;19.00;99.90;;;;;;4955591;29;20003;-63
2023/09/17 01:45:50;;;;;;;;;;;19.00;99.90;;;;;;4955638;29;19987;-64
2023/09/17 01:48:16;;;;;;;;;;;18.90;99.90;;;;;;4955588;28;19991;-67
2023/09/17 01:50:42;;;;;;;;;;;18.90;99.90;;;;;;4955535;28;20030;-68
2023/09/17 01:53:08;;;;;;;;;;;18.90;99.90;;;;;;4955387;28;20450;-65
2023/09/17 01:55:34;;;;;;;;;;;18.90;99.90;;;;;;4955515;28;19998;-65
2023/09/17 01:58:00;;;;;;;;;;;18.80;99.90;;;;;;4955452;28;20014;-63
2023/09/17 02:00:26;;;;;;;;;;;18.90;99.90;;;;;;4955516;29;20078;-69
2023/09/17 02:02:52;;;;;;;;;;;18.80;99.90;;;;;;4955609;28;19984;-65
2023/09/17 02:05:20;;;;;;;;;;;18.80;99.90;;;;;;4958368;28;19990;-67
2023/09/17 02:07:46;;;;;;;;;;;18.80;99.90;;;;;;4959139;28;19999;-63
2023/09/17 02:10:12;;;;;;;;;;;18.70;99.90;;;;;;4959253;28;19984;-62
2023/09/17 02:12:38;;;;;;;;;;;18.70;99.90;;;;;;4959103;29;20513;-66
2023/09/17 02:15:04;;;;;;;;;;;18.70;99.90;;;;;;4959183;28;20469;-65
2023/09/17 02:17:30;;;;;;;;;;;18.70;99.90;;;;;;4959102;28;19983;-62
2023/09/17 02:19:55;;;;;;;;;;;18.70;99.90;;;;;;4959401;28;19998;-64
2023/09/17 02:22:21;;;;;;;;;;;18.60;99.90;;;;;;4958806;28;20070;-67
2023/09/17 02:24:47;;;;;;;;;;;18.50;99.90;;;;;;4959220;29;20442;-68
2023/09/17 02:27:13;;;;;;;;;;;18.50;99.90;;;;;;4958993;29;20075;-67
2023/09/17 02:29:42;;;;;;;;;;;18.50;99.90;;;;;;4959018;28;19987;-64
2023/09/17 02:32:09;;;;;;;;;;;18.50;99.90;;;;;;4959060;28;20011;-67
2023/09/17 02:34:35;;;;;;;;;;;18.50;99.90;;;;;;4959123;28;19988;-64
2023/09/17 02:37:00;;;;;;;;;;;18.50;99.90;;;;;;4958479;29;20394;-67
2023/09/17 02:39:26;;;;;;;;;;;18.50;99.90;;;;;;4958694;29;19991;-66
2023/09/17 02:41:51;;;;;;;;;;;18.50;99.90;;;;;;4958747;29;19984;-67
2023/09/17 02:44:18;;;;;;;;;;;18.50;99.90;;;;;;4958831;29;20035;-67
2023/09/17 02:46:43;;;;;;;;;;;18.40;99.90;;;;;;4958700;28;20074;-64
2023/09/17 02:49:09;;;;;;;;;;;18.40;99.90;;;;;;4958871;29;20046;-69
2023/09/17 02:51:35;;;;;;;;;;;18.40;99.90;;;;;;4958159;28;19988;-65
2023/09/17 02:54:00;;;;;;;;;;;18.40;99.90;;;;;;4958347;29;20157;-67
2023/09/17 02:56:26;;;;;;;;;;;18.40;99.90;;;;;;4958567;29;19987;-62
2023/09/17 02:58:51;;;;;;;;;;;18.40;99.90;;;;;;4958717;29;19987;-64
2023/09/17 03:01:23;;;;;;;;;;;18.40;99.90;;;;;;4958230;28;20414;-68
2023/09/17 03:03:48;;;;;;;;;;;18.30;99.90;;;;;;4958615;28;20350;-65
2023/09/17 03:06:14;;;;;;;;;;;18.30;99.90;;;;;;4958351;28;19995;-68
2023/09/17 03:08:43;;;;;;;;;;;18.30;99.90;;;;;;4958189;28;20078;-64
2023/09/17 03:11:12;;;;;;;;;;;18.30;99.90;;;;;;4958543;28;19993;-63
2023/09/17 03:13:39;;;;;;;;;;;18.30;99.90;;;;;;4957948;28;20027;-67
2023/09/17 03:16:05;;;;;;;;;;;18.30;99.90;;;;;;4957784;28;20077;-66
2023/09/17 03:18:30;;;;;;;;;;;18.30;99.90;;;;;;4957976;29;20023;-66
2023/09/17 03:20:56;;;;;;;;;;;18.20;99.90;;;;;;4957871;29;19992;-64
2023/09/17 03:23:22;;;;;;;;;;;18.20;99.90;;;;;;4957994;29;19983;-63
2023/09/17 03:25:47;;;;;;;;;;;18.20;99.90;;;;;;4958156;29;20509;-63
2023/09/17 03:28:13;;;;;;;;;;;18.20;99.90;;;;;;4957959;29;19983;-63
2023/09/17 03:30:38;;;;;;;;;;;18.20;99.90;;;;;;4957638;28;20031;-64
2023/09/17 03:33:05;;;;;;;;;;;18.10;99.90;;;;;;4957893;28;20015;-62
2023/09/17 03:35:32;;;;;;;;;;;18.00;99.90;;;;;;4957790;28;20022;-64
2023/09/17 03:37:58;;;;;;;;;;;18.00;99.90;;;;;;4957646;28;20434;-62
2023/09/17 03:40:24;;;;;;;;;;;18.00;99.90;;;;;;4957909;29;20072;-64
2023/09/17 03:42:50;;;;;;;;;;;18.00;99.90;;;;;;4957694;28;19990;-66
2023/09/17 03:45:15;;;;;;;;;;;17.90;99.90;;;;;;4957708;29;20027;-64
2023/09/17 03:47:41;;;;;;;;;;;17.90;99.90;;;;;;4957830;29;19993;-65
2023/09/17 03:50:08;;;;;;;;;;;17.90;99.90;;;;;;4957348;28;19984;-68
2023/09/17 03:52:35;;;;;;;;;;;17.90;99.90;;;;;;4957338;28;20114;-64
2023/09/17 03:55:01;;;;;;;;;;;17.90;99.90;;;;;;4957349;28;19991;-67
2023/09/17 03:57:27;;;;;;;;;;;17.90;99.90;;;;;;4957450;28;19994;-61
2023/09/17 03:59:54;;;;;;;;;;;17.90;99.90;;;;;;4957719;28;19987;-69
2023/09/17 04:02:20;;;;;;;;;;;17.90;99.90;;;;;;4957196;28;19990;-64
2023/09/17 04:04:46;;;;;;;;;;;17.90;99.90;;;;;;4956945;28;20079;-69
2023/09/17 04:07:12;;;;;;;;;;;17.80;99.90;;;;;;4957145;28;19995;-67
2023/09/17 04:09:38;;;;;;;;;;;17.80;99.90;;;;;;4956946;28;19990;-62
2023/09/17 04:12:04;;;;;;;;;;;17.80;99.90;;;;;;4956950;28;20065;-66
2023/09/17 04:14:31;;;;;;;;;;;17.80;99.90;;;;;;4957320;28;20070;-63
2023/09/17 04:17:02;;;;;;;;;;;17.80;99.90;;;;;;4956868;28;20040;-71
2023/09/17 04:19:29;;;;;;;;;;;17.80;99.90;;;;;;4957050;28;20050;-62
2023/09/17 04:21:54;;;;;;;;;;;17.80;99.90;;;;;;4957114;28;20410;-64
2023/09/17 04:24:20;;;;;;;;;;;17.80;99.90;;;;;;4956744;28;20038;-66
2023/09/17 04:26:46;;;;;;;;;;;17.80;99.90;;;;;;4956078;28;19991;-66
2023/09/17 04:29:12;;;;;;;;;;;17.80;99.90;;;;;;4956745;28;19991;-68
2023/09/17 04:31:38;;;;;;;;;;;17.80;99.90;;;;;;4956456;28;19999;-63
2023/09/17 04:34:04;;;;;;;;;;;17.80;99.90;;;;;;4956609;28;20339;-69
2023/09/17 04:36:29;;;;;;;;;;;17.80;99.90;;;;;;4956857;28;20043;-67
2023/09/17 04:38:55;;;;;;;;;;;17.80;99.90;;;;;;4956553;28;20361;-66
2023/09/17 04:41:20;;;;;;;;;;;17.70;99.90;;;;;;4956692;29;20743;-68
2023/09/17 04:43:46;;;;;;;;;;;17.70;99.90;;;;;;4956516;29;20446;-67
2023/09/17 04:46:12;;;;;;;;;;;17.80;99.90;;;;;;4956367;28;20385;-62
2023/09/17 04:48:38;;;;;;;;;;;17.80;99.90;;;;;;4956153;28;19991;-64
2023/09/17 04:51:05;;;;;;;;;;;17.80;99.90;;;;;;4956643;28;20010;-62
2023/09/17 04:53:30;;;;;;;;;;;17.80;99.90;;;;;;4956405;28;20018;-65
2023/09/17 04:55:56;;;;;;;;;;;17.80;99.90;;;;;;4956246;29;19987;-63
2023/09/17 04:58:21;;;;;;;;;;;17.80;99.90;;;;;;4956480;29;19987;-63
2023/09/17 05:00:47;;;;;;;;;;;17.90;99.90;;;;;;4956250;28;19990;-63
2023/09/17 05:03:12;;;;;;;;;;;17.90;99.90;;;;;;4955942;29;19983;-64
2023/09/17 05:05:38;;;;;;;;;;;17.80;99.90;;;;;;4956385;29;19987;-67
2023/09/17 05:08:04;;;;;;;;;;;17.90;99.90;;;;;;4956114;29;20442;-66
2023/09/17 05:10:30;;;;;;;;;;;17.90;99.90;;;;;;4956251;28;19988;-64
2023/09/17 05:12:56;;;;;;;;;;;18.00;99.90;;;;;;4955825;29;20151;-67
2023/09/17 05:15:22;;;;;;;;;;;18.00;99.90;;;;;;4956097;28;20030;-65
2023/09/17 05:17:48;;;;;;;;;;;18.10;99.90;;;;;;4956102;28;20070;-62
2023/09/17 05:20:13;;;;;;;;;;;18.20;99.90;;;;;;4956163;29;19994;-69
2023/09/17 05:22:39;;;;;;;;;;;18.20;99.90;;;;;;4956037;29;20453;-67
2023/09/17 05:25:07;;;;;;;;;;;18.20;99.90;;;;;;4956142;28;20358;-63
2023/09/17 05:27:33;;;;;;;;;;;18.20;99.90;;;;;;4955871;28;19983;-62
2023/09/17 05:30:00;;;;;;;;;;;18.20;99.90;;;;;;4954462;28;20002;-65
2023/09/17 05:32:26;;;;;;;;;;;18.20;99.90;;;;;;4955650;28;20003;-68
2023/09/17 05:34:51;;;;;;;;;;;18.20;99.90;;;;;;4955651;28;19992;-65
2023/09/17 05:37:17;;;;;;;;;;;18.20;99.90;;;;;;4956018;29;20027;-62
2023/09/17 05:39:42;;;;;;;;;;;18.30;99.90;;;;;;4955798;28;19983;-64
2023/09/17 05:42:08;;;;;;;;;;;18.40;99.90;;;;;;4955630;28;20450;-70
2023/09/17 05:44:33;;;;;;;;;;;18.40;99.90;;;;;;4955797;28;20039;-68
2023/09/17 05:46:59;;;;;;;;;;;18.50;99.90;;;;;;4955747;29;20001;-69
2023/09/17 05:49:25;;;;;;;;;;;18.70;99.90;;;;;;4955914;28;19994;-62
2023/09/17 05:51:50;;;;;;;;;;;18.70;99.90;;;;;;4955809;28;20011;-69
2023/09/17 05:54:16;;;;;;;;;;;18.70;99.90;;;;;;4955529;29;20406;-67
2023/09/17 05:56:42;;;;;;;;;;;18.80;99.90;;;;;;4955634;28;20442;-62
2023/09/17 05:59:07;;;;;;;;;;;18.80;99.90;;;;;;4955473;29;20323;-67
2023/09/17 06:01:33;;;;;;;;;;;19.90;99.90;;;;;;4955353;29;20007;-70
2023/09/17 06:03:59;;;;;;;;;;;22.20;98.80;;;;;;4955875;28;20020;-65
2023/09/17 06:06:24;;;;;;;;;;;23.80;86.30;;;;;;4955448;29;19984;-68
2023/09/17 06:08:51;;;;;;;;;;;25.00;78.00;;;;;;4955701;29;19987;-60
2023/09/17 06:11:18;;;;;;;;;;;26.20;72.00;;;;;;4955578;28;20086;-65
2023/09/17 06:13:43;;;;;;;;;;;27.30;64.80;;;;;;4955190;28;20079;-61
2023/09/17 06:16:11;;;;;;;;;;;27.70;62.20;;;;;;4954531;29;20329;-65
2023/09/17 06:18:36;;;;;;;;;;;28.60;58.80;;;;;;4955475;29;19984;-64
2023/09/17 06:21:03;;;;;;;;;;;29.20;56.50;;;;;;4955305;29;20022;-62
2023/09/17 06:23:28;;;;;;;;;;;29.70;53.30;;;;;;4955662;28;20394;-63
2023/09/17 06:25:54;;;;;;;;;;;29.90;53.20;;;;;;4955366;29;20071;-67
2023/09/17 06:28:19;;;;;;;;;;;30.30;52.10;;;;;;4955223;28;19995;-60
2023/09/17 06:30:45;;;;;;;;;;;30.70;51.40;;;;;;4954955;28;20003;-64
2023/09/17 06:33:11;;;;;;;;;;;31.10;50.80;;;;;;4955209;28;20025;-66
2023/09/17 06:35:36;;;;;;;;;;;31.10;49.30;;;;;;4955547;28;20453;-68
2023/09/17 06:38:02;;;;;;;;;;;31.00;50.00;;;;;;4955200;28;19984;-67
2023/09/17 06:40:27;;;;;;;;;;;31.50;49.20;;;;;;4955166;29;19983;-69
2023/09/17 06:42:53;;;;;;;;;;;31.80;48.30;;;;;;4955144;29;20042;-64
2023/09/17 06:45:18;;;;;;;;;;;31.80;49.00;;;;;;4954946;29;19984;-67
2023/09/17 06:47:45;;;;;;;;;;;32.30;47.80;;;;;;4955097;28;20409;-67
2023/09/17 06:50:11;;;;;;;;;;;32.70;46.50;;;;;;4956298;28;19990;-64
2023/09/17 06:52:36;;;;;;;;;;;33.10;46.90;;;;;;4958438;28;20004;-68
2023/09/17 06:55:04;;;;;;;;;;;33.50;45.50;;;;;;4958774;28;20442;-66
2023/09/17 06:57:30;;;;;;;;;;;33.90;45.10;;;;;;4958634;28;19984;-65
2023/09/17 06:59:56;;;;;;;;;;;33.90;45.20;;;;;;4958240;28;19998;-69
2023/09/17 07:02:22;;;;;;;;;;;33.90;45.00;;;;;;4958400;28;19983;-67
2023/09/17 07:04:47;;;;;;;;;;;34.20;44.70;;;;;;4958423;28;20468;-62
2023/09/17 07:07:13;;;;;;;;;;;34.70;43.90;;;;;;4958358;28;20063;-64
2023/09/17 07:09:38;;;;;;;;;;;35.00;43.40;;;;;;4958112;29;20438;-63
2023/09/17 07:12:04;;;;;;;;;;;35.20;43.30;;;;;;4957885;29;20027;-64
2023/09/17 07:14:30;;;;;;;;;;;35.40;42.90;;;;;;4958214;28;19987;-67
2023/09/17 07:16:56;;;;;;;;;;;35.50;42.10;;;;;;4958110;28;19988;-63
2023/09/17 07:19:22;;;;;;;;;;;36.10;42.40;;;;;;4958328;28;19983;-60
2023/09/17 07:21:47;;;;;;;;;;;36.50;41.20;;;;;;4958175;28;20550;-60
2023/09/17 07:24:13;;;;;;;;;;;36.60;40.50;;;;;;4957860;28;20075;-71
2023/09/17 07:26:39;;;;;;;;;;;36.80;40.60;;;;;;4957888;28;20019;-67
2023/09/17 07:29:04;;;;;;;;;;;37.20;40.40;;;;;;4957980;29;19984;-66
2023/09/17 07:31:30;;;;;;;;;;;37.60;39.40;;;;;;4957974;28;20003;-64
2023/09/17 07:33:55;;;;;;;;;;;37.90;38.60;;;;;;4957813;29;20505;-67
2023/09/17 07:36:21;;;;;;;;;;;38.00;38.30;;;;;;4957802;29;20056;-66
2023/09/17 07:38:47;;;;;;;;;;;37.80;38.80;;;;;;4957890;28;20023;-65
2023/09/17 07:41:12;;;;;;;;;;;37.90;39.00;;;;;;4957416;29;20010;-65
2023/09/17 07:43:38;;;;;;;;;;;38.20;38.40;;;;;;4957908;28;20038;-69
2023/09/17 07:46:05;;;;;;;;;;;38.40;38.10;;;;;;4957598;28;20482;-65
2023/09/17 07:48:31;;;;;;;;;;;38.00;39.30;;;;;;4957771;28;19987;-64
2023/09/17 07:51:00;;;;;;;;;;;38.30;38.90;;;;;;4957495;28;19991;-66
2023/09/17 07:53:26;;;;;;;;;;;38.80;37.90;;;;;;4957488;28;20019;-69
2023/09/17 07:55:52;;;;;;;;;;;39.30;37.60;;;;;;4957162;28;19983;-66
2023/09/17 07:58:17;;;;;;;;;;;39.70;37.40;;;;;;4957524;28;19992;-66
2023/09/17 08:00:45;;;;;;;;;;;40.00;36.20;;;;;;4957340;28;19995;-67
2023/09/17 08:03:15;;;;;;;;;;;40.10;35.50;;;;;;4956721;28;20347;-68
2023/09/17 08:05:42;;;;;;;;;;;39.80;36.90;;;;;;4957216;28;20082;-65
2023/09/17 08:08:08;;;;;;;;;;;40.20;36.70;;;;;;4957153;28;19987;-67
2023/09/17 08:10:35;;;;;;;;;;;40.00;36.20;;;;;;4956871;28;19984;-63
2023/09/17 08:13:01;;;;;;;;;;;40.10;36.40;;;;;;4956875;28;20019;-65
2023/09/17 08:15:29;;;;;;;;;;;40.20;36.40;;;;;;4957282;29;19994;-65
2023/09/17 08:17:55;;;;;;;;;;;40.10;35.50;;;;;;4957220;28;19987;-68
2023/09/17 08:20:21;;;;;;;;;;;39.90;36.10;;;;;;4957006;28;20047;-64
2023/09/17 08:22:46;;;;;;;;;;;40.00;35.90;;;;;;4956912;28;19991;-64
2023/09/17 08:25:12;;;;;;;;;;;40.00;35.20;;;;;;4956919;29;19991;-70
2023/09/17 08:27:38;;;;;;;;;;;39.70;36.60;;;;;;4956858;29;19987;-66
2023/09/17 08:30:11;;;;;;;;;;;39.50;36.80;;;;;;4956824;28;19999;-64
2023/09/17 08:32:37;;;;;;;;;;;39.10;36.00;;;;;;4956659;28;20011;-64
2023/09/17 08:35:03;;;;;;;;;;;38.80;36.90;;;;;;4956829;28;20359;-67
2023/09/17 08:37:29;;;;;;;;;;;39.00;36.40;;;;;;4956881;28;19988;-67
2023/09/17 08:39:54;;;;;;;;;;;38.70;37.80;;;;;;4956684;28;20449;-62
2023/09/17 08:42:21;;;;;;;;;;;38.80;36.70;;;;;;4956821;28;20434;-63
2023/09/17 08:44:49;;;;;;;;;;;38.70;37.00;;;;;;4956596;28;20034;-64
2023/09/17 08:47:14;;;;;;;;;;;38.60;37.50;;;;;;4956525;28;19990;-65
2023/09/17 08:49:40;;;;;;;;;;;38.30;38.40;;;;;;4956668;28;19987;-67
2023/09/17 08:52:06;;;;;;;;;;;37.70;38.80;;;;;;4956247;28;20022;-67
2023/09/17 08:54:40;;;;;;;;;;;37.60;38.70;;;;;;4956198;28;19983;-65
2023/09/17 08:57:07;;;;;;;;;;;36.80;39.80;;;;;;4956317;28;19995;-65
2023/09/17 08:59:37;;;;;;;;;;;36.60;39.80;;;;;;4956561;28;20027;-66
2023/09/17 09:02:05;;;;;;;;;;;36.20;41.30;;;;;;4956469;28;19994;-66
2023/09/17 09:04:34;;;;;;;;;;;36.10;40.80;;;;;;4956349;28;19988;-65
2023/09/17 09:07:01;;;;;;;;;;;36.10;41.10;;;;;;4956237;28;19983;-64
2023/09/17 09:09:26;;;;;;;;;;;36.00;39.80;;;;;;4956130;28;19991;-67
2023/09/17 09:11:52;;;;;;;;;;;36.00;40.00;;;;;;4955896;28;20070;-67
2023/09/17 09:14:18;;;;;;;;;;;35.90;40.10;;;;;;4955688;28;20501;-67
2023/09/17 09:16:44;;;;;;;;;;;35.90;41.10;;;;;;4956108;28;20071;-65
2023/09/17 09:19:10;;;;;;;;;;;35.80;41.00;;;;;;4956168;28;19983;-69
2023/09/17 09:21:36;;;;;;;;;;;36.00;41.50;;;;;;4956036;28;19987;-67
2023/09/17 09:24:01;;;;;;;;;;;35.50;40.70;;;;;;4955737;29;19984;-64
2023/09/17 09:26:33;;;;;;;;;;;35.30;41.40;;;;;;4956050;29;20019;-64
2023/09/17 09:28:59;;;;;;;;;;;35.40;41.70;;;;;;4956125;28;20350;-67
2023/09/17 09:31:26;;;;;;;;;;;35.50;41.10;;;;;;4955765;28;19999;-68
2023/09/17 09:33:52;;;;;;;;;;;35.70;40.10;;;;;;4955671;28;20475;-65
2023/09/17 09:36:19;;;;;;;;;;;35.50;40.00;;;;;;4955823;28;20019;-68
2023/09/17 09:38:44;;;;;;;;;;;34.80;41.30;;;;;;4955609;28;20019;-67
2023/09/17 09:41:10;;;;;;;;;;;35.00;42.90;;;;;;4955673;29;20078;-68
2023/09/17 09:43:36;;;;;;;;;;;35.30;42.20;;;;;;4955682;28;19988;-67
2023/09/17 09:46:04;;;;;;;;;;;35.50;40.00;;;;;;4955561;29;20003;-68
2023/09/17 09:48:30;;;;;;;;;;;35.60;40.40;;;;;;4955859;28;19991;-61
2023/09/17 09:50:55;;;;;;;;;;;35.30;39.80;;;;;;4955944;28;20138;-69
2023/09/17 09:53:21;;;;;;;;;;;34.90;40.50;;;;;;4955455;28;20098;-65
2023/09/17 09:55:48;;;;;;;;;;;35.10;41.50;;;;;;4955572;29;19983;-68
2023/09/17 09:58:13;;;;;;;;;;;35.40;39.90;;;;;;4955667;28;19987;-65
2023/09/17 10:00:44;;;;;;;;;;;35.50;40.20;;;;;;4955671;28;20442;-61
2023/09/17 10:03:14;;;;;;;;;;;35.50;39.60;;;;;;4955381;28;19987;-68
2023/09/17 10:05:40;;;;;;;;;;;35.60;41.90;;;;;;4955733;28;19988;-62
2023/09/17 10:08:09;;;;;;;;;;;35.80;41.40;;;;;;4955562;29;20398;-65
2023/09/17 10:10:38;;;;;;;;;;;35.60;40.20;;;;;;4955202;28;20485;-68
2023/09/17 10:13:08;;;;;;;;;;;35.60;39.40;;;;;;4955273;28;20023;-67
2023/09/17 10:15:36;;;;;;;;;;;35.90;39.10;;;;;;4955516;28;19984;-68
2023/09/17 10:18:04;;;;;;;;;;;36.20;38.50;;;;;;4955265;28;19983;-67
2023/09/17 10:20:30;;;;;;;;;;;36.50;38.50;;;;;;4955422;28;20392;-63
2023/09/17 10:22:57;;;;;;;;;;;36.80;36.10;;;;;;4955184;28;19984;-63
2023/09/17 10:25:23;;;;;;;;;;;37.10;36.00;;;;;;4956723;28;19988;-64
2023/09/17 10:27:49;;;;;;;;;;;37.10;35.30;;;;;;4958985;28;19983;-70
2023/09/17 10:30:17;;;;;;;;;;;37.00;36.00;;;;;;4959133;28;20358;-65
2023/09/17 10:32:44;;;;;;;;;;;37.10;37.30;;;;;;4958815;28;20008;-67
2023/09/17 10:35:10;;;;;;;;;;;37.20;35.50;;;;;;4958620;28;19995;-68
2023/09/17 10:37:37;;;;;;;;;;;36.90;36.90;;;;;;4958859;28;19995;-67
2023/09/17 10:40:08;;;;;;;;;;;37.10;34.90;;;;;;4958790;28;19983;-68
2023/09/17 10:42:34;;;;;;;;;;;36.90;34.70;;;;;;4959088;28;20441;-71
2023/09/17 10:45:02;;;;;;;;;;;36.90;34.70;;;;;;4958698;28;19994;-65
2023/09/17 10:47:28;;;;;;;;;;;36.70;35.60;;;;;;4958575;28;19987;-64
2023/09/17 10:49:54;;;;;;;;;;;36.80;35.80;;;;;;4958458;28;20442;-66
2023/09/17 10:52:20;;;;;;;;;;;36.80;37.00;;;;;;4958522;28;20015;-65
2023/09/17 10:54:46;;;;;;;;;;;36.90;35.30;;;;;;4958746;28;20081;-66
2023/09/17 10:57:23;;;;;;;;;;;37.10;35.80;;;;;;4958492;28;20510;-65
2023/09/17 10:59:50;;;;;;;;;;;37.00;36.20;;;;;;4958446;28;20030;-68
2023/09/17 11:02:16;;;;;;;;;;;37.00;35.30;;;;;;4958313;28;20078;-64
2023/09/17 11:04:42;;;;;;;;;;;37.00;33.90;;;;;;4958202;28;20034;-68
2023/09/17 11:07:08;;;;;;;;;;;37.30;36.40;;;;;;4958282;28;19994;-67
2023/09/17 11:09:34;;;;;;;;;;;37.60;33.80;;;;;;4958226;28;19983;-65
2023/09/17 11:12:01;;;;;;;;;;;37.20;33.00;;;;;;4957975;28;20023;-68
2023/09/17 11:14:28;;;;;;;;;;;36.80;34.80;;;;;;4958272;28;19994;-69
2023/09/17 11:16:54;;;;;;;;;;;36.70;32.40;;;;;;4958086;28;19991;-63
2023/09/17 11:19:20;;;;;;;;;;;37.00;33.30;;;;;;4957888;29;19984;-67
2023/09/17 11:21:50;;;;;;;;;;;37.20;34.20;;;;;;4958028;28;19984;-65
2023/09/17 11:24:18;;;;;;;;;;;37.30;33.50;;;;;;4957944;28;20443;-64
2023/09/17 11:26:45;;;;;;;;;;;37.30;34.30;;;;;;4958233;28;20346;-67
2023/09/17 11:29:10;;;;;;;;;;;37.10;34.20;;;;;;4957962;28;19995;-64
2023/09/17 11:31:57;;;;;;;;;;;36.90;34.10;;;;;;4957600;28;20003;-69
2023/09/17 11:34:22;;;;;;;;;;;37.00;33.00;;;;;;4957500;28;19988;-64
2023/09/17 11:36:50;;;;;;;;;;;37.20;31.30;;;;;;4957526;28;20059;-66
2023/09/17 11:39:16;;;;;;;;;;;37.30;32.50;;;;;;4957759;28;20066;-64
2023/09/17 11:41:46;;;;;;;;;;;37.60;33.40;;;;;;4957728;28;20422;-67
2023/09/17 11:44:12;;;;;;;;;;;37.70;34.60;;;;;;4957475;28;20446;-64
2023/09/17 11:46:38;;;;;;;;;;;37.80;33.20;;;;;;4957688;28;20039;-68
2023/09/17 11:49:03;;;;;;;;;;;37.80;34.40;;;;;;4956103;29;19987;-68
2023/09/17 11:51:30;;;;;;;;;;;37.80;32.50;;;;;;4957505;28;20026;-68
2023/09/17 11:54:00;;;;;;;;;;;37.80;32.70;;;;;;4957391;28;20011;-68
2023/09/17 11:56:28;;;;;;;;;;;37.90;33.90;;;;;;4957691;28;20098;-61
2023/09/17 11:59:04;;;;;;;;;;;37.90;33.40;;;;;;4957247;28;20058;-64
2023/09/17 12:01:31;;;;;;;;;;;37.90;32.00;;;;;;4957286;28;20489;-65
2023/09/17 12:04:01;;;;;;;;;;;37.80;32.60;;;;;;4957089;28;19987;-65
2023/09/17 12:06:27;;;;;;;;;;;37.90;33.60;;;;;;4957380;28;20418;-64
2023/09/17 12:08:55;;;;;;;;;;;38.00;33.90;;;;;;4957399;29;20034;-70
2023/09/17 12:11:23;;;;;;;;;;;38.10;32.00;;;;;;4957089;28;20397;-69
2023/09/17 12:13:53;;;;;;;;;;;38.00;33.40;;;;;;4956755;28;20058;-66
2023/09/17 12:16:26;;;;;;;;;;;37.80;32.50;;;;;;4957110;28;19983;-65
2023/09/17 12:18:52;;;;;;;;;;;37.60;31.60;;;;;;4956785;28;20030;-65
2023/09/17 12:21:18;;;;;;;;;;;37.30;32.40;;;;;;4956893;28;20450;-63
2023/09/17 12:24:04;;;;;;;;;;;37.30;32.30;;;;;;4957184;28;19988;-71
2023/09/17 12:26:46;;;;;;;;;;;37.20;32.30;;;;;;4957083;28;20011;-68
2023/09/17 12:29:12;;;;;;;;;;;37.30;33.60;;;;;;4956850;28;19983;-62
2023/09/17 12:31:38;;;;;;;;;;;37.30;32.80;;;;;;4956403;28;20377;-62
2023/09/17 12:34:04;;;;;;;;;;;37.40;33.70;;;;;;4957032;28;20334;-66
2023/09/17 12:36:30;;;;;;;;;;;37.60;34.50;;;;;;4956748;28;19990;-63
2023/09/17 12:38:56;;;;;;;;;;;37.30;34.00;;;;;;4956584;28;20126;-66
2023/09/17 12:41:22;;;;;;;;;;;37.30;32.80;;;;;;4956869;28;20078;-63
2023/09/17 12:43:47;;;;;;;;;;;37.20;31.90;;;;;;4956582;28;20073;-66
2023/09/17 12:46:13;;;;;;;;;;;37.50;31.90;;;;;;4956489;29;20003;-67
2023/09/17 12:48:39;;;;;;;;;;;37.80;30.70;;;;;;4955867;28;20058;-66
2023/09/17 12:51:04;;;;;;;;;;;37.80;29.60;;;;;;4956487;28;19984;-67
2023/09/17 12:53:30;;;;;;;;;;;37.80;31.30;;;;;;4956587;28;20410;-65
2023/09/17 12:56:00;;;;;;;;;;;37.90;30.60;;;;;;4956250;28;19987;-67
2023/09/17 12:58:26;;;;;;;;;;;37.60;30.90;;;;;;4956532;28;20030;-62
2023/09/17 13:00:52;;;;;;;;;;;37.50;32.00;;;;;;4956119;28;19983;-65
2023/09/17 13:03:18;;;;;;;;;;;37.40;31.30;;;;;;4956281;28;20027;-64
2023/09/17 13:05:45;;;;;;;;;;;37.60;30.70;;;;;;4956431;28;20019;-64
2023/09/17 13:08:10;;;;;;;;;;;37.80;31.00;;;;;;4956161;28;19984;-64
2023/09/17 13:10:37;;;;;;;;;;;37.80;32.30;;;;;;4955958;29;20058;-69
2023/09/17 13:13:05;;;;;;;;;;;37.80;31.60;;;;;;4955888;28;20027;-69
2023/09/17 13:15:32;;;;;;;;;;;38.10;31.80;;;;;;4956009;28;20019;-68
2023/09/17 13:17:58;;;;;;;;;;;38.30;31.00;;;;;;4955846;28;19987;-67
2023/09/17 13:20:23;;;;;;;;;;;38.50;30.70;;;;;;4956236;28;19987;-65
2023/09/17 13:22:50;;;;;;;;;;;38.60;30.70;;;;;;4955901;28;20354;-68
2023/09/17 13:25:16;;;;;;;;;;;38.50;31.10;;;;;;4955730;28;19988;-65
2023/09/17 13:27:43;;;;;;;;;;;38.40;30.10;;;;;;4956041;28;19995;-65
2023/09/17 13:30:09;;;;;;;;;;;38.30;31.10;;;;;;4955808;28;20058;-65
2023/09/17 13:32:35;;;;;;;;;;;38.10;29.50;;;;;;4955649;28;20513;-63
2023/09/17 13:35:03;;;;;;;;;;;38.00;29.60;;;;;;4955895;28;19983;-68
2023/09/17 13:37:29;;;;;;;;;;;37.70;30.00;;;;;;4955993;28;19988;-65
2023/09/17 13:39:54;;;;;;;;;;;37.80;30.40;;;;;;4955882;28;19994;-65
2023/09/17 13:42:21;;;;;;;;;;;38.10;29.50;;;;;;4955618;28;19995;-65
2023/09/17 13:44:46;;;;;;;;;;;37.60;30.20;;;;;;4955597;28;20354;-71
2023/09/17 13:47:12;;;;;;;;;;;37.30;30.60;;;;;;4955568;28;20086;-65
2023/09/17 13:49:38;;;;;;;;;;;37.40;31.60;;;;;;4955504;28;19994;-64
2023/09/17 13:52:04;;;;;;;;;;;37.40;30.60;;;;;;4955484;28;20018;-67
2023/09/17 13:54:30;;;;;;;;;;;37.30;30.60;;;;;;4955566;28;19991;-64
2023/09/17 13:56:55;;;;;;;;;;;37.00;30.90;;;;;;4955724;28;19991;-67
2023/09/17 13:59:21;;;;;;;;;;;37.30;31.80;;;;;;4955591;28;19995;-64
2023/09/17 14:01:46;;;;;;;;;;;37.60;30.30;;;;;;4959582;29;19988;-70
2023/09/17 14:04:12;;;;;;;;;;;37.80;30.90;;;;;;4959235;29;20074;-68
2023/09/17 14:06:38;;;;;;;;;;;37.90;30.20;;;;;;4959446;29;19991;-69
2023/09/17 14:09:03;;;;;;;;;;;38.00;30.10;;;;;;4959427;28;20030;-65
2023/09/17 14:11:29;;;;;;;;;;;37.90;29.80;;;;;;4957897;29;20062;-67